Time;durP1;ratioP1;P1;durP2;ratioP2;P2;SDS_P1;SDS_P2;PMS_P1;PMS_P2;Temp;Humidity;BMP_temperature;BMP_pressure;BME280_temperature;BME280_humidity;BME280_pressure;Samples;Min_cycle;Max_cycle;Signal;HPM_P1;HPM_P2
2023/06/02 00:00:49;;;;;;;12.55;5.72;;;;;;;20.81;62.35;100917.44;4993044;28;20825;-80
2023/06/02 00:03:15;;;;;;;11.03;5.20;;;;;;;20.91;61.98;100911.47;4991941;28;20405;-83
2023/06/02 00:05:41;;;;;;;11.18;5.50;;;;;;;20.91;61.83;100909.59;4992616;28;20382;-82
2023/06/02 00:08:07;;;;;;;11.77;5.63;;;;;;;20.97;61.91;100921.31;4993368;28;20385;-82
2023/06/02 00:10:32;;;;;;;9.98;5.68;;;;;;;21.00;61.89;100912.75;4992873;28;20849;-81
2023/06/02 00:12:58;;;;;;;11.13;5.70;;;;;;;21.06;61.42;100917.19;4992390;28;20374;-81
2023/06/02 00:15:23;;;;;;;12.77;6.53;;;;;;;20.97;61.81;100922.13;4993280;28;20405;-79
2023/06/02 00:17:48;;;;;;;8.80;5.50;;;;;;;21.03;61.58;100923.09;4992818;28;20385;-79
2023/06/02 00:20:17;;;;;;;10.70;5.67;;;;;;;21.07;61.25;100912.63;4991448;28;20374;-81
2023/06/02 00:22:46;;;;;;;8.45;5.80;;;;;;;21.11;61.11;100908.44;4991250;28;20879;-79
2023/06/02 00:25:12;;;;;;;11.10;5.70;;;;;;;21.13;61.00;100914.41;4991909;28;20477;-79
2023/06/02 00:27:37;;;;;;;9.10;6.17;;;;;;;21.18;60.74;100912.63;4974953;28;20801;-80
2023/06/02 00:30:03;;;;;;;13.25;7.03;;;;;;;21.29;60.57;100923.66;4996025;28;20472;-82
2023/06/02 00:32:29;;;;;;;10.47;6.13;;;;;;;21.30;60.52;100909.09;4994699;28;20393;-81
2023/06/02 00:34:54;;;;;;;10.50;6.13;;;;;;;21.25;60.69;100907.13;4990832;28;20622;-81
2023/06/02 00:37:20;;;;;;;12.03;6.00;;;;;;;21.18;61.11;100904.53;4992334;28;20373;-81
2023/06/02 00:39:45;;;;;;;11.43;5.82;;;;;;;21.02;61.51;100904.44;4991704;28;20394;-80
2023/06/02 00:42:11;;;;;;;14.50;7.77;;;;;;;20.86;62.16;100903.28;4991707;28;20452;-80
2023/06/02 00:44:36;;;;;;;15.18;8.50;;;;;;;20.78;62.73;100909.84;4973935;28;20413;-80
2023/06/02 00:47:02;;;;;;;16.50;8.63;;;;;;;20.74;62.93;100903.25;4991011;28;20743;-80
2023/06/02 00:49:27;;;;;;;14.83;8.80;;;;;;;20.71;63.32;100904.53;4991349;28;20382;-80
2023/06/02 00:51:53;;;;;;;14.85;8.52;;;;;;;20.59;63.91;100901.78;4991087;28;20378;-80
2023/06/02 00:54:19;;;;;;;13.38;7.97;;;;;;;20.53;64.46;100910.00;4990605;28;20382;-80
2023/06/02 00:56:45;;;;;;;13.27;7.45;;;;;;;20.57;64.47;100911.97;4991658;28;20405;-80
2023/06/02 00:59:11;;;;;;;15.63;7.53;;;;;;;20.65;64.13;100907.34;4992163;28;20384;-80
2023/06/02 01:01:38;;;;;;;13.13;7.83;;;;;;;20.57;64.39;100909.28;4991810;28;20866;-80
2023/06/02 01:04:05;;;;;;;16.07;7.73;;;;;;;20.49;64.71;100912.34;4974535;28;20460;-80
2023/06/02 01:06:37;;;;;;;20.07;7.90;;;;;;;20.43;64.69;100908.66;4976150;28;20441;-81
2023/06/02 01:09:05;;;;;;;16.30;7.00;;;;;;;20.48;64.70;100918.75;4995249;28;20389;-80
2023/06/02 01:11:32;;;;;;;16.57;6.87;;;;;;;20.51;64.42;100912.06;4995327;28;20385;-80
2023/06/02 01:13:59;;;;;;;15.50;6.95;;;;;;;20.53;64.37;100910.81;4995398;28;20378;-80
2023/06/02 01:16:26;;;;;;;14.07;7.00;;;;;;;20.58;64.28;100915.50;4995150;28;20493;-80
2023/06/02 01:18:53;;;;;;;14.23;6.88;;;;;;;20.65;64.14;100918.13;4995180;28;20933;-81
2023/06/02 01:21:23;;;;;;;17.23;6.80;;;;;;;20.65;63.98;100912.72;4995134;28;20382;-81
2023/06/02 01:23:53;;;;;;;20.45;7.88;;;;;;;20.61;63.97;100907.78;4994708;28;20382;-80
2023/06/02 01:26:19;;;;;;;13.48;7.20;;;;;;;20.53;64.20;100907.31;4997014;28;20410;-80
2023/06/02 01:28:45;;;;;;;13.45;7.20;;;;;;;20.60;64.04;100906.13;5003168;28;20388;-81
2023/06/02 01:31:16;;;;;;;17.05;7.40;;;;;;;20.59;64.13;100903.69;4996866;28;20388;-81
2023/06/02 01:33:54;;;;;;;15.00;7.75;;;;;;;20.57;64.18;100903.91;4996494;28;20985;-81
2023/06/02 01:36:22;;;;;;;14.60;7.20;;;;;;;20.74;63.65;100911.31;4995852;28;20463;-80
2023/06/02 01:38:50;;;;;;;16.77;8.13;;;;;;;20.60;63.59;100899.94;4994854;28;20388;-80
2023/06/02 01:41:18;;;;;;;14.43;7.53;;;;;;;20.53;64.10;100907.31;4995835;28;20818;-80
2023/06/02 01:43:46;;;;;;;19.30;8.38;;;;;;;20.47;64.22;100909.03;4994813;28;20377;-80
2023/06/02 01:46:12;;;;;;;14.90;8.07;;;;;;;20.33;64.60;100892.28;4999478;28;20491;-81
2023/06/02 01:48:40;;;;;;;18.65;8.63;;;;;;;20.33;64.68;100905.75;5002543;28;20398;-81
2023/06/02 01:51:08;;;;;;;11.50;8.10;;;;;;;20.39;64.54;100896.72;4995698;28;21491;-82
2023/06/02 01:53:33;;;;;;;14.10;8.20;;;;;;;20.56;63.91;100894.19;4995369;28;20386;-80
2023/06/02 01:56:00;;;;;;;15.97;7.97;;;;;;;20.57;63.85;100884.25;4994918;28;20495;-81
2023/06/02 01:58:26;;;;;;;17.10;8.93;;;;;;;20.55;63.94;100886.34;4978044;28;20437;-81
2023/06/02 02:00:54;;;;;;;16.97;8.07;;;;;;;20.54;63.90;100890.91;4996190;28;20415;-81
2023/06/02 02:03:22;;;;;;;17.30;8.60;;;;;;;20.47;64.33;100886.66;4994735;28;20405;-80
2023/06/02 02:05:47;;;;;;;15.18;8.18;;;;;;;20.49;64.12;100888.09;4996918;28;20382;-81
2023/06/02 02:08:13;;;;;;;13.98;7.78;;;;;;;20.52;63.97;100895.69;4997488;28;20382;-81
2023/06/02 02:10:39;;;;;;;15.80;7.60;;;;;;;20.44;64.33;100901.44;4978637;28;20469;-81
2023/06/02 02:13:04;;;;;;;17.38;8.20;;;;;;;20.43;64.36;100902.47;4994241;28;20390;-81
2023/06/02 02:15:30;;;;;;;20.27;8.00;;;;;;;20.41;64.38;100897.31;4994397;28;20420;-80
2023/06/02 02:17:56;;;;;;;16.23;7.78;;;;;;;20.49;64.20;100901.56;4976634;28;20904;-79
2023/06/02 02:20:22;;;;;;;14.10;7.03;;;;;;;20.48;64.35;100904.47;4994022;28;20392;-80
2023/06/02 02:22:48;;;;;;;13.60;7.43;;;;;;;20.58;63.93;100902.03;4993557;28;20377;-80
2023/06/02 02:25:14;;;;;;;15.73;7.53;;;;;;;20.59;63.87;100895.59;4994252;28;20382;-80
2023/06/02 02:27:40;;;;;;;13.40;7.22;;;;;;;20.54;63.98;100893.59;4994029;28;20406;-79
2023/06/02 02:30:07;;;;;;;14.48;7.40;;;;;;;20.58;63.91;100889.41;4993123;28;20428;-79
2023/06/02 02:32:38;;;;;;;15.33;7.50;;;;;;;20.67;63.69;100899.84;4993813;28;20389;-79
2023/06/02 02:35:04;;;;;;;10.68;6.90;;;;;;;20.56;63.70;100896.06;4993657;28;20468;-79
2023/06/02 02:37:31;;;;;;;12.98;7.47;;;;;;;20.51;63.97;100890.53;4976481;28;20440;-80
2023/06/02 02:39:57;;;;;;;15.77;7.63;;;;;;;20.48;64.03;100882.94;4976471;28;20404;-79
2023/06/02 02:42:22;;;;;;;13.77;7.30;;;;;;;20.42;64.10;100892.78;4993186;28;20389;-81
2023/06/02 02:44:48;;;;;;;13.13;7.78;;;;;;;20.37;64.49;100887.25;4994011;28;20378;-81
2023/06/02 02:47:13;;;;;;;15.00;7.93;;;;;;;20.39;64.51;100883.25;4993527;28;20856;-80
2023/06/02 02:49:39;;;;;;;14.60;8.27;;;;;;;20.43;64.32;100876.34;4993511;28;20381;-80
2023/06/02 02:52:04;;;;;;;12.97;7.97;;;;;;;20.60;63.78;100881.09;4993242;28;20452;-80
2023/06/02 02:54:30;;;;;;;19.07;9.07;;;;;;;20.67;63.48;100881.00;4993629;28;20452;-80
2023/06/02 02:56:55;;;;;;;20.57;8.93;;;;;;;20.58;63.84;100881.31;4992662;28;20428;-80
2023/06/02 02:59:21;;;;;;;16.97;8.97;;;;;;;20.60;63.77;100876.50;4977046;28;20724;-78
2023/06/02 03:01:47;;;;;;;18.25;8.57;;;;;;;20.64;63.61;100871.50;4993861;28;20389;-80
2023/06/02 03:04:21;;;;;;;18.75;8.25;;;;;;;20.54;64.01;100882.00;4993504;28;20437;-81
2023/06/02 03:06:49;;;;;;;15.68;8.85;;;;;;;20.42;64.44;100877.41;4993122;28;20893;-79
2023/06/02 03:09:18;;;;;;;15.73;8.60;;;;;;;20.52;64.18;100878.72;4993944;28;20386;-79
2023/06/02 03:11:44;;;;;;;14.88;8.65;;;;;;;20.74;63.56;100879.84;4993728;28;20852;-79
2023/06/02 03:14:10;;;;;;;17.23;8.90;;;;;;;20.84;63.12;100879.25;4993344;28;20444;-79
2023/06/02 03:16:38;;;;;;;15.63;8.10;;;;;;;20.90;62.94;100881.00;4976234;28;20405;-79
2023/06/02 03:19:05;;;;;;;14.63;8.50;;;;;;;20.95;62.87;100891.09;4976880;28;20382;-80
2023/06/02 03:21:31;;;;;;;18.65;8.05;;;;;;;20.94;62.68;100882.19;4993732;28;20378;-79
2023/06/02 03:23:58;;;;;;;17.27;7.70;;;;;;;20.95;62.50;100881.13;4992659;28;20431;-79
2023/06/02 03:26:25;;;;;;;15.85;7.65;;;;;;;21.01;62.35;100879.34;4998943;28;20786;-83
2023/06/02 03:28:54;;;;;;;21.77;7.95;;;;;;;20.78;62.81;100883.69;4999652;28;20472;-81
2023/06/02 03:31:19;;;;;;;20.58;8.05;;;;;;;20.70;63.22;100888.63;5008502;28;20392;-81
2023/06/02 03:33:46;;;;;;;16.43;8.50;;;;;;;20.58;63.46;100894.78;5011047;28;21871;-81
2023/06/02 03:36:12;;;;;;;16.63;8.40;;;;;;;20.59;63.73;100901.78;5011130;28;20419;-79
2023/06/02 03:38:38;;;;;;;20.35;9.18;;;;;;;20.56;63.65;100899.59;5011699;28;20399;-81
2023/06/02 03:41:03;;;;;;;17.10;8.73;;;;;;;20.65;63.66;100904.66;5013828;28;20380;-80
2023/06/02 03:43:29;;;;;;;15.40;7.80;;;;;;;20.59;63.51;100901.78;5016441;28;20438;-80
2023/06/02 03:45:54;;;;;;;18.25;7.95;;;;;;;20.58;63.76;100896.63;5015865;28;20418;-79
2023/06/02 03:48:20;;;;;;;16.90;7.23;;;;;;;20.47;64.07;100906.34;5013758;28;20730;-80
2023/06/02 03:50:45;;;;;;;19.07;8.10;;;;;;;20.46;64.30;100909.28;5016002;28;20411;-81
2023/06/02 03:53:11;;;;;;;18.13;7.57;;;;;;;20.37;64.44;100906.91;5021493;28;20475;-81
2023/06/02 03:55:36;;;;;;;18.97;7.30;;;;;;;20.28;65.03;100910.16;5020291;28;20528;-80
2023/06/02 03:58:02;;;;;;;17.73;7.33;;;;;;;20.18;65.17;100908.03;5022290;28;20395;-80
2023/06/02 04:00:28;;;;;;;16.67;7.40;;;;;;;20.30;64.92;100911.56;5017693;28;20403;-80
2023/06/02 04:02:55;;;;;;;19.67;7.35;;;;;;;20.34;64.55;100904.66;4991867;28;20416;-80
2023/06/02 04:05:20;;;;;;;13.73;6.93;;;;;;;20.41;64.48;100907.28;5009381;28;20395;-81
2023/06/02 04:07:46;;;;;;;17.90;7.50;;;;;;;20.42;64.34;100898.97;4989016;28;20389;-78
2023/06/02 04:10:12;;;;;;;19.67;9.43;;;;;;;20.34;64.44;100893.09;4992562;28;20388;-80
2023/06/02 04:12:37;;;;;;;19.13;9.30;;;;;;;20.23;64.85;100898.19;5010209;28;20423;-79
2023/06/02 04:15:03;;;;;;;13.82;6.43;;;;;;;20.16;64.85;100896.66;5011169;28;20848;-79
2023/06/02 04:17:29;;;;;;;12.48;6.70;;;;;;;20.22;64.74;100899.28;4994548;28;20451;-81
2023/06/02 04:19:54;;;;;;;11.50;5.63;;;;;;;20.35;64.38;100905.50;5011876;28;20857;-80
2023/06/02 04:22:20;;;;;;;13.30;6.30;;;;;;;20.38;64.11;100905.03;5011588;28;20397;-81
2023/06/02 04:24:46;;;;;;;10.10;6.20;;;;;;;20.44;63.73;100896.84;5012810;28;20394;-81
2023/06/02 04:27:14;;;;;;;11.23;6.17;;;;;;;20.45;63.77;100900.38;5014068;28;20392;-79
2023/06/02 04:29:40;;;;;;;11.48;5.80;;;;;;;20.50;63.56;100902.38;4995439;28;20384;-81
2023/06/02 04:32:06;;;;;;;11.35;5.95;;;;;;;20.48;63.38;100905.28;4994507;28;20384;-81
2023/06/02 04:34:32;;;;;;;12.75;6.43;;;;;;;20.57;63.43;100911.16;5012206;28;20380;-81
2023/06/02 04:36:58;;;;;;;17.15;7.07;;;;;;;20.73;62.97;100901.63;5012533;28;20391;-81
2023/06/02 04:39:24;;;;;;;16.23;7.10;;;;;;;20.85;62.58;100907.00;5012473;28;20392;-79
2023/06/02 04:41:49;;;;;;;17.73;6.80;;;;;;;20.81;62.68;100896.72;5015368;28;20410;-80
2023/06/02 04:44:16;;;;;;;9.93;6.53;;;;;;;20.86;62.31;100898.69;5015556;28;20391;-80
2023/06/02 04:46:43;;;;;;;11.48;6.07;;;;;;;20.88;62.27;100898.47;5018176;28;20387;-80
2023/06/02 04:49:09;;;;;;;15.80;6.90;;;;;;;20.81;62.31;100903.97;5016923;28;20379;-80
2023/06/02 04:51:35;;;;;;;14.00;6.32;;;;;;;20.79;62.63;100909.56;4999202;28;20466;-83
2023/06/02 04:54:01;;;;;;;13.05;6.35;;;;;;;20.92;62.37;100905.00;4983129;28;20423;-81
2023/06/02 04:56:27;;;;;;;10.33;5.90;;;;;;;21.08;61.80;100906.19;5017344;28;20408;-80
2023/06/02 04:58:53;;;;;;;10.73;5.88;;;;;;;21.13;61.89;100903.63;5017295;28;20384;-82
2023/06/02 05:01:19;;;;;;;11.23;6.05;;;;;;;21.12;62.07;100899.25;5015928;28;20738;-80
2023/06/02 05:03:45;;;;;;;14.68;6.95;;;;;;;21.15;61.99;100891.53;5015307;28;20388;-80
2023/06/02 05:06:10;;;;;;;11.50;6.10;;;;;;;21.11;62.12;100901.16;4994218;28;20411;-81
2023/06/02 05:08:36;;;;;;;11.05;6.32;;;;;;;21.17;61.98;100899.38;5007298;28;20427;-80
2023/06/02 05:11:02;;;;;;;12.27;5.70;;;;;;;21.15;61.83;100904.19;5014876;28;20384;-79
2023/06/02 05:13:29;;;;;;;13.57;6.10;;;;;;;21.18;61.81;100904.53;5014039;28;20450;-79
2023/06/02 05:15:55;;;;;;;11.25;6.00;;;;;;;21.13;62.20;100906.31;5014358;28;20423;-81
2023/06/02 05:18:21;;;;;;;12.10;6.27;;;;;;;21.33;62.28;100912.13;4995475;28;20393;-80
2023/06/02 05:20:47;;;;;;;12.70;6.57;;;;;;;21.52;61.62;100909.34;5013052;28;20840;-80
2023/06/02 05:23:13;;;;;;;12.98;6.47;;;;;;;21.61;61.65;100910.59;4994185;28;20401;-81
2023/06/02 05:25:39;;;;;;;15.45;6.80;;;;;;;21.72;60.96;100909.75;5009802;28;20384;-81
2023/06/02 05:28:05;;;;;;;17.50;8.75;;;;;;;21.54;60.64;100909.91;5007567;28;20395;-81
2023/06/02 05:30:30;;;;;;;18.53;11.07;;;;;;;21.61;61.27;100907.91;5014951;28;20392;-80
2023/06/02 05:32:56;;;;;;;17.27;10.18;;;;;;;21.79;60.85;100909.63;5011104;28;20413;-80
2023/06/02 05:35:21;;;;;;;17.87;9.10;;;;;;;21.94;60.87;100901.78;5006984;28;20443;-80
2023/06/02 05:37:47;;;;;;;16.27;8.27;;;;;;;22.16;60.45;100909.22;5014996;28;20395;-80
2023/06/02 05:40:13;;;;;;;18.27;9.63;;;;;;;22.19;60.29;100905.22;5014974;28;20380;-81
2023/06/02 05:42:39;;;;;;;12.73;9.27;;;;;;;22.19;60.33;100908.75;5016149;28;20376;-81
2023/06/02 05:45:05;;;;;;;17.65;9.40;;;;;;;22.24;60.17;100911.53;5007239;28;20395;-80
2023/06/02 05:47:32;;;;;;;13.48;9.02;;;;;;;22.28;59.93;100901.91;5020084;28;20388;-80
2023/06/02 05:49:58;;;;;;;14.40;8.40;;;;;;;22.57;59.49;100903.75;5003039;28;20467;-82
2023/06/02 05:52:23;;;;;;;20.30;9.23;;;;;;;22.73;58.72;100904.81;5011291;28;20388;-84
2023/06/02 05:54:49;;;;;;;15.90;8.98;;;;;;;22.60;58.84;100903.22;4999747;28;20976;-83
2023/06/02 05:57:17;;;;;;;13.93;9.55;;;;;;;22.64;58.78;100907.09;5013971;28;20412;-82
2023/06/02 05:59:43;;;;;;;16.60;9.00;;;;;;;22.81;58.87;100907.06;5012712;28;20399;-82
2023/06/02 06:02:08;;;;;;;17.38;9.15;;;;;;;22.93;58.63;100910.50;5005894;28;20739;-83
2023/06/02 06:04:34;;;;;;;13.47;9.00;;;;;;;23.07;58.21;100898.31;5023429;28;20404;-83
2023/06/02 06:06:59;;;;;;;12.15;8.85;;;;;;;23.17;58.08;100897.63;5016598;28;20471;-83
2023/06/02 06:09:25;;;;;;;14.43;8.13;;;;;;;23.40;57.48;100890.38;4997975;28;20386;-82
2023/06/02 06:11:50;;;;;;;15.33;8.00;;;;;;;23.67;56.17;100890.41;5017448;28;20381;-84
2023/06/02 06:14:16;;;;;;;14.90;7.97;;;;;;;23.79;55.99;100888.41;5019252;28;20380;-82
2023/06/02 06:16:41;;;;;;;13.50;7.40;;;;;;;23.88;55.12;100896.06;5011819;28;20406;-82
2023/06/02 06:19:07;;;;;;;11.57;7.28;;;;;;;23.78;55.18;100902.19;5013810;28;20419;-81
2023/06/02 06:21:33;;;;;;;10.17;6.87;;;;;;;23.72;55.67;100898.59;5014473;28;20391;-82
2023/06/02 06:23:58;;;;;;;9.67;6.90;;;;;;;23.86;54.90;100896.34;5010636;28;20381;-82
2023/06/02 06:26:24;;;;;;;11.13;6.90;;;;;;;23.77;54.87;100900.53;4978558;28;20404;-83
2023/06/02 06:28:51;;;;;;;12.77;7.20;;;;;;;23.85;54.58;100900.94;4996818;28;20396;-82
2023/06/02 06:31:16;;;;;;;13.15;6.68;;;;;;;24.14;54.47;100903.38;5004634;28;20749;-82
2023/06/02 06:33:42;;;;;;;13.52;6.90;;;;;;;24.32;53.69;100902.22;5016086;28;20399;-81
2023/06/02 06:36:10;;;;;;;10.03;6.30;;;;;;;24.43;53.61;100905.81;5017014;28;20899;-82
2023/06/02 06:38:36;;;;;;;13.52;7.25;;;;;;;24.57;53.05;100901.63;5018743;28;20387;-84
2023/06/02 06:41:01;;;;;;;11.13;6.17;;;;;;;24.45;52.18;100905.56;5000032;28;20393;-84
2023/06/02 06:43:27;;;;;;;11.77;6.82;;;;;;;24.41;52.62;100903.38;5016260;28;20400;-85
2023/06/02 06:45:52;;;;;;;14.17;6.70;;;;;;;24.47;52.71;100908.84;5000823;28;20377;-82
2023/06/02 06:48:18;;;;;;;13.43;7.10;;;;;;;24.57;52.68;100901.63;5017389;28;20849;-82
2023/06/02 06:50:43;;;;;;;10.23;6.72;;;;;;;24.79;52.20;100904.25;5016960;28;20394;-83
2023/06/02 06:53:11;;;;;;;10.90;6.93;;;;;;;24.74;51.95;100909.66;5013800;28;20401;-83
2023/06/02 06:55:36;;;;;;;11.53;6.90;;;;;;;24.82;51.92;100904.81;5016935;28;20422;-83
2023/06/02 06:58:02;;;;;;;10.63;6.55;;;;;;;25.00;51.62;100910.63;5022310;28;20388;-83
2023/06/02 07:00:27;;;;;;;12.30;6.63;;;;;;;25.13;51.59;100911.22;5016225;28;20479;-83
2023/06/02 07:02:54;;;;;;;9.93;6.32;;;;;;;25.25;50.98;100908.34;5015901;28;20761;-81
2023/06/02 07:05:19;;;;;;;9.93;7.03;;;;;;;25.32;51.27;100909.75;5015773;28;20376;-82
2023/06/02 07:07:46;;;;;;;10.23;6.30;;;;;;;25.34;50.55;100906.78;5011311;28;20386;-82
2023/06/02 07:10:14;;;;;;;14.40;6.63;;;;;;;25.46;50.50;100911.97;5005759;28;20431;-82
2023/06/02 07:12:41;;;;;;;9.68;6.53;;;;;;;25.49;49.96;100911.44;4997251;28;20388;-81
2023/06/02 07:15:07;;;;;;;14.65;6.75;;;;;;;25.69;50.02;100911.50;5015959;28;20443;-83
2023/06/02 07:17:34;;;;;;;8.10;6.20;;;;;;;25.78;49.80;100908.28;4994008;28;20378;-82
2023/06/02 07:19:59;;;;;;;10.80;6.57;;;;;;;25.74;49.61;100916.97;5006168;28;20440;-82
2023/06/02 07:22:25;;;;;;;15.40;6.38;;;;;;;25.73;49.68;100923.50;5014074;28;20745;-81
2023/06/02 07:24:51;;;;;;;15.03;6.47;;;;;;;25.80;49.48;100922.41;5015341;28;20463;-82
2023/06/02 07:27:17;;;;;;;6.93;5.97;;;;;;;25.83;49.25;100925.41;5031173;28;20467;-84
2023/06/02 07:29:43;;;;;;;10.50;6.73;;;;;;;25.96;49.24;100915.97;5024608;28;20448;-83
2023/06/02 07:32:09;;;;;;;11.82;6.10;;;;;;;25.99;48.70;100915.44;5003117;28;20466;-82
2023/06/02 07:34:37;;;;;;;12.07;6.30;;;;;;;26.06;48.76;100916.00;5005336;28;20452;-82
2023/06/02 07:37:02;;;;;;;9.70;6.55;;;;;;;26.11;48.37;100918.72;5012730;28;20391;-82
2023/06/02 07:39:28;;;;;;;11.33;6.63;;;;;;;26.11;48.81;100917.91;5030629;28;20385;-81
2023/06/02 07:41:54;;;;;;;11.10;7.45;;;;;;;26.24;48.62;100919.28;5013155;28;20398;-82
2023/06/02 07:44:19;;;;;;;10.50;6.57;;;;;;;26.35;48.49;100912.78;5003248;28;20402;-81
2023/06/02 07:46:45;;;;;;;9.93;6.38;;;;;;;26.41;48.30;100913.59;5014871;28;20408;-82
2023/06/02 07:49:12;;;;;;;11.25;6.47;;;;;;;26.40;48.29;100903.78;5019525;28;20740;-83
2023/06/02 07:51:39;;;;;;;12.15;8.00;;;;;;;26.51;48.41;100906.25;4998913;28;20392;-84
2023/06/02 07:54:05;;;;;;;14.85;8.18;;;;;;;26.69;48.07;100914.97;5015509;28;20888;-82
2023/06/02 07:56:30;;;;;;;11.23;6.45;;;;;;;26.65;47.57;100906.56;4997514;28;20419;-78
2023/06/02 07:58:56;;;;;;;12.43;7.65;;;;;;;26.62;47.21;100903.56;5013807;28;20859;-80
2023/06/02 08:01:21;;;;;;;13.27;6.82;;;;;;;26.68;47.36;100914.16;5013729;28;20395;-80
2023/06/02 08:03:47;;;;;;;12.93;8.00;;;;;;;26.74;47.40;100906.81;5013570;28;20426;-80
2023/06/02 08:06:13;;;;;;;14.63;7.20;;;;;;;26.80;47.31;100905.72;5013797;28;20372;-80
2023/06/02 08:08:39;;;;;;;10.83;6.70;;;;;;;26.93;46.94;100909.78;5016117;28;20384;-79
2023/06/02 08:11:04;;;;;;;15.32;6.40;;;;;;;27.02;46.84;100912.75;5013937;28;20918;-80
2023/06/02 08:13:30;;;;;;;13.60;6.60;;;;;;;27.01;46.49;100902.94;4995141;28;20387;-81
2023/06/02 08:15:56;;;;;;;13.50;6.93;;;;;;;27.03;46.62;100908.94;5012221;28;20411;-81
2023/06/02 08:18:21;;;;;;;15.20;7.57;;;;;;;27.13;46.29;100913.53;5013599;28;20705;-80
2023/06/02 08:20:47;;;;;;;13.27;6.90;;;;;;;27.18;46.45;100906.16;5008511;28;20860;-81
2023/06/02 08:23:12;;;;;;;13.77;7.20;;;;;;;27.26;45.88;100902.06;5003420;28;20391;-80
2023/06/02 08:25:40;;;;;;;10.60;7.40;;;;;;;27.28;46.03;100897.22;5001054;28;20710;-83
2023/06/02 08:28:06;;;;;;;10.30;6.57;;;;;;;27.37;45.55;100895.53;5002394;28;20478;-79
2023/06/02 08:30:35;;;;;;;10.95;6.35;;;;;;;27.53;45.69;100900.91;5009842;28;20383;-79
2023/06/02 08:33:08;;;;;;;14.07;6.97;;;;;;;27.65;45.13;100894.03;5016046;28;20463;-81
2023/06/02 08:35:40;;;;;;;9.40;6.82;;;;;;;27.76;44.93;100894.78;5015018;28;20418;-81
2023/06/02 08:38:09;;;;;;;14.13;6.77;;;;;;;27.73;44.38;100887.19;5012914;28;20400;-79
2023/06/02 08:40:37;;;;;;;8.38;6.00;;;;;;;27.72;44.92;100884.75;5017701;28;20411;-81
2023/06/02 08:43:13;;;;;;;11.23;6.43;;;;;;;27.78;44.66;100883.59;5014675;28;20547;-80
2023/06/02 08:45:46;;;;;;;10.88;6.50;;;;;;;27.81;44.74;100889.31;4995924;28;20396;-80
2023/06/02 08:48:17;;;;;;;13.65;6.75;;;;;;;27.80;44.45;100884.13;5013792;28;20384;-81
2023/06/02 08:50:48;;;;;;;13.07;6.47;;;;;;;27.86;44.35;100885.75;5014838;28;20433;-81
2023/06/02 08:53:18;;;;;;;10.95;6.43;;;;;;;27.97;44.29;100892.78;5014390;28;20384;-80
2023/06/02 08:55:47;;;;;;;11.38;6.72;;;;;;;28.03;43.92;100888.91;4995827;28;20785;-80
2023/06/02 08:58:13;;;;;;;10.15;6.68;;;;;;;28.08;43.80;100874.47;5014087;28;20749;-80
2023/06/02 09:00:38;;;;;;;11.03;6.60;;;;;;;28.07;44.04;100881.00;5013032;28;20380;-82
2023/06/02 09:03:04;;;;;;;11.73;6.68;;;;;;;28.16;43.76;100873.88;5013008;28;20395;-81
2023/06/02 09:05:33;;;;;;;12.40;6.57;;;;;;;28.30;44.10;100881.38;5012432;28;20376;-81
2023/06/02 09:08:10;;;;;;;12.00;6.30;;;;;;;28.25;44.18;100867.78;5011734;28;20372;-80
2023/06/02 09:10:42;;;;;;;11.32;6.35;;;;;;;28.28;44.54;100873.47;5012726;28;20761;-78
2023/06/02 09:13:09;;;;;;;12.27;6.18;;;;;;;28.33;44.38;100868.00;5011865;28;20395;-79
2023/06/02 09:15:35;;;;;;;13.65;6.15;;;;;;;28.42;44.15;100865.47;5013482;28;20411;-80
2023/06/02 09:18:14;;;;;;;9.93;6.47;;;;;;;28.47;43.59;100857.25;5013206;28;20736;-80
2023/06/02 09:20:40;;;;;;;12.95;6.57;;;;;;;28.54;43.64;100860.47;5011880;28;20396;-81
2023/06/02 09:23:06;;;;;;;12.73;6.53;;;;;;;28.67;43.34;100860.91;5012714;28;20388;-81
2023/06/02 09:25:33;;;;;;;11.95;6.00;;;;;;;28.59;42.92;100848.69;5013469;28;20392;-80
2023/06/02 09:28:00;;;;;;;12.07;6.40;;;;;;;28.62;42.71;100848.13;5014253;28;20388;-80
2023/06/02 09:30:27;;;;;;;13.52;6.53;;;;;;;28.79;42.67;100847.66;5022237;28;20463;-80
2023/06/02 09:32:57;;;;;;;10.63;6.15;;;;;;;28.92;42.57;100846.19;5016559;28;20395;-81
2023/06/02 09:35:44;;;;;;;11.20;6.10;;;;;;;28.97;42.34;100835.19;5016667;28;20403;-80
2023/06/02 09:38:12;;;;;;;10.90;6.18;;;;;;;29.08;41.87;100835.88;4999619;28;20450;-80
2023/06/02 09:40:38;;;;;;;10.93;5.85;;;;;;;29.08;41.56;100817.59;5018233;28;20501;-80
2023/06/02 09:43:05;;;;;;;12.10;6.30;;;;;;;29.10;41.17;100820.84;5017231;28;20857;-82
2023/06/02 09:45:54;;;;;;;10.60;6.47;;;;;;;29.21;40.99;100813.38;4998950;28;20450;-79
2023/06/02 09:48:24;;;;;;;12.15;6.80;;;;;;;29.36;40.88;100809.63;5017513;28;20454;-79
2023/06/02 09:50:50;;;;;;;12.55;6.15;;;;;;;29.46;40.81;100804.03;5019688;28;20394;-82
2023/06/02 09:53:17;;;;;;;11.75;5.93;;;;;;;29.45;40.17;100805.13;5015438;28;20388;-79
2023/06/02 09:55:44;;;;;;;10.07;5.82;;;;;;;29.40;40.20;100802.44;5014086;28;20415;-80
2023/06/02 09:58:10;;;;;;;10.93;6.33;;;;;;;29.39;40.05;100795.38;5014906;28;20380;-83
2023/06/02 10:00:36;;;;;;;12.43;6.72;;;;;;;29.52;39.83;100793.84;5014686;28;20388;-79
2023/06/02 10:03:03;;;;;;;10.10;5.90;;;;;;;29.58;39.64;100798.09;5015182;28;20395;-80
2023/06/02 10:05:29;;;;;;;9.90;6.00;;;;;;;29.59;39.88;100799.72;4997620;28;20449;-80
2023/06/02 10:08:09;;;;;;;10.75;6.03;;;;;;;29.51;39.99;100792.19;5014339;28;20393;-81
2023/06/02 10:10:50;;;;;;;9.15;5.40;;;;;;;29.50;40.46;100787.84;5016468;28;20456;-80
2023/06/02 10:13:24;;;;;;;9.82;5.80;;;;;;;29.47;40.48;100788.44;5018491;28;20411;-81
2023/06/02 10:16:02;;;;;;;11.48;5.78;;;;;;;29.41;40.47;100782.25;5014486;28;20408;-81
2023/06/02 10:18:46;;;;;;;11.73;5.90;;;;;;;29.49;40.32;100773.38;5014382;28;20696;-80
2023/06/02 10:21:18;;;;;;;7.80;5.47;;;;;;;29.66;39.56;100770.13;5014104;28;20392;-79
2023/06/02 10:23:52;;;;;;;7.73;4.83;;;;;;;29.57;39.23;100768.34;5016713;28;20392;-79
2023/06/02 10:26:53;;;;;;;8.52;4.93;;;;;;;29.61;39.22;100775.66;5015888;28;20407;-80
2023/06/02 10:29:19;;;;;;;9.88;4.95;;;;;;;29.55;39.17;100772.19;5016256;28;20388;-81
2023/06/02 10:31:45;;;;;;;8.68;5.07;;;;;;;29.57;38.84;100771.06;5015811;28;20384;-78
2023/06/02 10:34:37;;;;;;;8.90;5.23;;;;;;;29.57;39.68;100765.63;5014886;28;20853;-79
2023/06/02 10:37:03;;;;;;;5.40;4.35;;;;;;;29.58;39.33;100759.06;5015385;28;20393;-79
2023/06/02 10:39:37;;;;;;;8.10;4.87;;;;;;;29.53;39.08;100760.75;4996922;28;20463;-79
2023/06/02 10:42:11;;;;;;;9.93;4.75;;;;;;;29.65;38.34;100756.75;5014623;28;20388;-79
2023/06/02 10:44:36;;;;;;;11.52;4.70;;;;;;;29.65;38.28;100743.91;5013456;28;20403;-80
2023/06/02 10:47:17;;;;;;;8.03;4.30;;;;;;;29.76;37.27;100743.78;5013864;28;20380;-80
2023/06/02 10:49:59;;;;;;;5.70;3.67;;;;;;;29.74;36.49;100738.56;5013025;28;20657;-79
2023/06/02 10:52:53;;;;;;;6.67;3.37;;;;;;;29.73;34.52;100736.97;5014242;28;20871;-80
2023/06/02 10:55:18;;;;;;;6.65;3.60;;;;;;;29.63;34.75;100732.47;5001348;28;20922;-83
2023/06/02 10:58:01;;;;;;;5.28;3.63;;;;;;;29.73;34.66;100728.78;4998521;28;20386;-82
2023/06/02 11:00:32;;;;;;;4.72;3.33;;;;;;;29.82;34.14;100726.16;4981397;28;20447;-82
2023/06/02 11:02:59;;;;;;;6.97;3.45;;;;;;;29.92;33.77;100713.16;4997777;28;20413;-80
2023/06/02 11:05:26;;;;;;;4.90;3.70;;;;;;;29.93;35.64;100716.72;4997669;28;20424;-79
2023/06/02 11:08:18;;;;;;;8.52;3.60;;;;;;;30.04;34.71;100711.88;4998374;28;20456;-79
2023/06/02 11:10:51;;;;;;;4.63;3.80;;;;;;;30.04;34.63;100718.13;4996698;28;20378;-82
2023/06/02 11:13:18;;;;;;;10.37;4.00;;;;;;;30.03;33.69;100716.50;4997641;28;20870;-81
2023/06/02 11:16:10;;;;;;;7.07;4.03;;;;;;;30.09;34.27;100717.25;4978651;28;20454;-79
2023/06/02 11:18:40;;;;;;;5.65;3.80;;;;;;;30.24;33.89;100706.00;4991317;28;20398;-79
2023/06/02 11:21:20;;;;;;;6.70;3.78;;;;;;;30.26;33.33;100698.31;4994799;28;20536;-78